Terminal Aerodrome Forecast
Issued by NWS

Current Version | Previous Version | Graphics & Text | Print | Product List | Glossary On
Versions: 1 2 3 4 5 6 7 8 9 10 11 12 13 14 15 16 17 18 19 20 21 22 23 24 25 26 27 28 29 30 31 32 33 34
000
FTUS41 KRNK 161130
TAFLWB
TAF
KLWB 161130Z 1612/1712 00000KT P6SM SCT015 BKN025
     FM161400 29003KT P6SM OVC035
     FM162100 31006KT P6SM BKN045
     FM170000 00000KT P6SM SCT035 SCT100
     FM170700 00000KT 2SM BR SCT001 BKN015=

USA.gov is the U.S. government's official web portal to all federal, state and local government web resources and services.